createdAt,value
2023-05-19T00:00:30.998Z,100.00
2023-05-19T00:02:57.968Z,100.00
2023-05-19T00:05:24.915Z,100.00
2023-05-19T00:07:51.998Z,100.00
2023-05-19T00:10:18.771Z,100.00
2023-05-19T00:12:45.440Z,100.00
2023-05-19T00:15:12.550Z,100.00
2023-05-19T00:17:42.353Z,100.00
2023-05-19T00:20:09.232Z,100.00
2023-05-19T00:22:37.041Z,100.00
2023-05-19T00:25:04.064Z,100.00
2023-05-19T00:27:30.668Z,100.00
2023-05-19T00:29:57.181Z,100.00
2023-05-19T00:32:23.831Z,100.00
2023-05-19T00:34:50.426Z,100.00
2023-05-19T00:37:16.947Z,100.00
2023-05-19T00:39:43.491Z,100.00
2023-05-19T00:42:10.217Z,100.00
2023-05-19T00:44:40.563Z,100.00
2023-05-19T00:47:07.059Z,100.00
2023-05-19T00:49:33.676Z,100.00
2023-05-19T00:52:01.279Z,100.00
2023-05-19T00:54:28.422Z,100.00
2023-05-19T00:56:55.344Z,100.00
2023-05-19T00:59:21.846Z,100.00
2023-05-19T01:01:49.131Z,100.00
2023-05-19T01:04:20.064Z,100.00
2023-05-19T01:06:54.786Z,100.00
2023-05-19T01:09:22.610Z,100.00
2023-05-19T01:11:50.222Z,100.00
2023-05-19T01:14:16.819Z,100.00
2023-05-19T01:17:08.822Z,100.00
2023-05-19T01:20:02.205Z,100.00
2023-05-19T01:22:32.399Z,100.00
2023-05-19T01:25:27.311Z,100.00
2023-05-19T01:28:27.903Z,100.00
2023-05-19T01:30:55.576Z,100.00
2023-05-19T01:33:22.808Z,100.00
2023-05-19T01:35:49.368Z,98.58
2023-05-19T01:38:17.477Z,99.34
2023-05-19T01:40:44.068Z,97.24
2023-05-19T01:43:13.199Z,98.16
2023-05-19T01:45:39.800Z,97.81
2023-05-19T01:48:08.421Z,98.41
2023-05-19T01:50:36.421Z,99.43
2023-05-19T01:53:03.297Z,100.00
2023-05-19T01:55:29.802Z,100.00
2023-05-19T01:57:59.160Z,100.00
2023-05-19T02:00:31.875Z,95.14
2023-05-19T02:03:22.616Z,97.50
2023-05-19T02:06:11.962Z,99.49
2023-05-19T02:09:03.833Z,100.00
2023-05-19T02:12:01.146Z,100.00
2023-05-19T02:15:04.467Z,100.00
2023-05-19T02:17:33.129Z,100.00
2023-05-19T02:19:59.770Z,100.00
2023-05-19T02:22:26.288Z,100.00
2023-05-19T02:24:52.816Z,100.00
2023-05-19T02:27:19.367Z,100.00
2023-05-19T02:29:46.027Z,100.00
2023-05-19T02:32:12.665Z,100.00
2023-05-19T02:34:39.288Z,100.00
2023-05-19T02:37:07.564Z,100.00
2023-05-19T02:39:35.292Z,100.00
2023-05-19T02:42:01.903Z,100.00
2023-05-19T02:44:28.418Z,100.00
2023-05-19T02:46:55.077Z,100.00
2023-05-19T02:49:21.608Z,100.00
2023-05-19T02:51:48.141Z,100.00
2023-05-19T02:54:14.681Z,100.00
2023-05-19T02:56:41.190Z,100.00
2023-05-19T02:59:08.734Z,100.00
2023-05-19T03:01:35.284Z,100.00
2023-05-19T03:04:02.187Z,100.00
2023-05-19T03:06:29.391Z,100.00
2023-05-19T03:08:55.914Z,100.00
2023-05-19T03:11:23.281Z,100.00
2023-05-19T03:13:49.822Z,100.00
2023-05-19T03:16:16.382Z,100.00
2023-05-19T03:18:42.931Z,100.00
2023-05-19T03:21:09.718Z,100.00
2023-05-19T03:23:36.303Z,100.00
2023-05-19T03:26:03.055Z,100.00
2023-05-19T03:28:29.826Z,100.00
2023-05-19T03:30:56.341Z,100.00
2023-05-19T03:33:23.950Z,100.00
2023-05-19T03:35:50.621Z,100.00
2023-05-19T03:38:17.151Z,100.00
2023-05-19T03:40:45.021Z,100.00
2023-05-19T03:43:11.557Z,100.00
2023-05-19T03:45:38.139Z,100.00
2023-05-19T03:48:04.998Z,100.00
2023-05-19T03:50:31.745Z,100.00
2023-05-19T03:52:58.553Z,100.00
2023-05-19T03:55:25.713Z,100.00
2023-05-19T03:57:55.105Z,100.00
2023-05-19T04:00:21.617Z,100.00
2023-05-19T04:02:48.264Z,100.00
2023-05-19T04:05:14.913Z,100.00
2023-05-19T04:07:41.651Z,100.00
2023-05-19T04:10:08.314Z,100.00
2023-05-19T04:12:34.853Z,100.00
2023-05-19T04:15:01.410Z,100.00
2023-05-19T04:17:28.026Z,100.00
2023-05-19T04:19:54.622Z,100.00
2023-05-19T04:22:21.410Z,100.00
2023-05-19T04:24:48.671Z,100.00
2023-05-19T04:27:16.086Z,100.00
2023-05-19T04:29:42.608Z,100.00
2023-05-19T04:32:09.198Z,100.00
2023-05-19T04:34:35.838Z,100.00
2023-05-19T04:37:02.556Z,100.00
2023-05-19T04:39:29.198Z,100.00
2023-05-19T04:41:56.597Z,100.00
2023-05-19T04:44:23.152Z,100.00
2023-05-19T04:46:50.153Z,100.00
2023-05-19T04:49:19.171Z,100.00
2023-05-19T04:51:46.126Z,100.00
2023-05-19T04:54:12.644Z,94.07
2023-05-19T04:56:39.152Z,93.63
2023-05-19T04:59:06.837Z,89.92
2023-05-19T05:01:40.228Z,89.63
2023-05-19T05:04:07.097Z,91.66
2023-05-19T05:06:33.673Z,88.44
2023-05-19T05:09:00.390Z,86.19
2023-05-19T05:11:27.079Z,86.68
2023-05-19T05:13:53.758Z,87.90
2023-05-19T05:16:20.633Z,89.86
2023-05-19T05:18:47.323Z,87.69
2023-05-19T05:21:14.052Z,87.44
2023-05-19T05:23:40.730Z,85.39
2023-05-19T05:26:10.797Z,83.01
2023-05-19T05:28:37.305Z,83.90
2023-05-19T05:31:03.968Z,82.08
2023-05-19T05:33:30.581Z,81.10
2023-05-19T05:35:57.122Z,80.29
2023-05-19T05:38:23.864Z,79.78
2023-05-19T05:40:50.655Z,80.62
2023-05-19T05:43:17.170Z,79.63
2023-05-19T05:45:43.704Z,80.93
2023-05-19T05:48:10.807Z,79.89
2023-05-19T05:50:37.645Z,78.59
2023-05-19T05:53:04.333Z,78.93
2023-05-19T05:55:31.368Z,79.61
2023-05-19T05:57:58.675Z,79.14
2023-05-19T06:00:27.906Z,80.89
2023-05-19T06:02:54.592Z,78.54
2023-05-19T06:05:21.296Z,77.44
2023-05-19T06:07:47.845Z,78.48
2023-05-19T06:10:14.956Z,78.64
2023-05-19T06:12:43.203Z,79.43
2023-05-19T06:15:10.098Z,80.49
2023-05-19T06:17:36.692Z,81.45
2023-05-19T06:20:04.755Z,80.39
2023-05-19T06:22:31.332Z,75.79
2023-05-19T06:24:57.874Z,76.27
2023-05-19T06:27:24.412Z,75.33
2023-05-19T06:29:51.003Z,79.11
2023-05-19T06:32:17.537Z,74.56
2023-05-19T06:34:44.036Z,75.35
2023-05-19T06:37:11.144Z,77.32
2023-05-19T06:39:38.041Z,74.17
2023-05-19T06:42:04.851Z,73.21
2023-05-19T06:44:31.365Z,75.93
2023-05-19T06:46:58.043Z,75.68
2023-05-19T06:49:24.624Z,72.45
2023-05-19T06:51:51.143Z,73.92
2023-05-19T06:54:17.661Z,72.79
2023-05-19T06:56:45.009Z,71.25
2023-05-19T06:59:11.531Z,72.51
2023-05-19T07:01:38.751Z,74.35
2023-05-19T07:04:05.610Z,70.52
2023-05-19T07:06:32.247Z,71.81
2023-05-19T07:08:58.771Z,70.73
2023-05-19T07:11:26.466Z,71.15
2023-05-19T07:13:53.049Z,74.39
2023-05-19T07:16:19.586Z,69.33
2023-05-19T07:18:46.173Z,70.19
2023-05-19T07:21:13.012Z,70.26
2023-05-19T07:23:40.097Z,69.14
2023-05-19T07:26:12.979Z,68.83
2023-05-19T07:28:41.738Z,69.81
2023-05-19T07:31:13.525Z,68.84
2023-05-19T07:33:41.424Z,69.42
2023-05-19T07:36:11.084Z,71.17
2023-05-19T07:38:38.382Z,69.32
2023-05-19T07:41:06.536Z,72.57
2023-05-19T07:43:33.133Z,70.04
2023-05-19T07:46:00.709Z,68.07
2023-05-19T07:48:27.334Z,67.92
2023-05-19T07:50:54.079Z,68.13
2023-05-19T07:53:20.771Z,71.54
2023-05-19T07:55:47.277Z,69.73
2023-05-19T07:58:13.782Z,66.88
2023-05-19T08:00:42.958Z,69.05
2023-05-19T08:03:10.308Z,63.75
2023-05-19T08:05:36.986Z,66.84
2023-05-19T08:08:03.646Z,65.48
2023-05-19T08:10:30.464Z,64.49
2023-05-19T08:12:57.008Z,64.63
2023-05-19T08:15:23.568Z,64.93
2023-05-19T08:17:50.107Z,66.00
2023-05-19T08:20:16.682Z,65.36
2023-05-19T08:22:43.219Z,66.56
2023-05-19T08:25:10.396Z,65.92
2023-05-19T08:27:36.941Z,63.80
2023-05-19T08:30:03.504Z,63.70
2023-05-19T08:32:30.054Z,61.75
2023-05-19T08:34:56.596Z,60.70
2023-05-19T08:37:23.138Z,66.28
2023-05-19T08:39:50.111Z,60.69
2023-05-19T08:42:16.665Z,61.09
2023-05-19T08:44:43.996Z,62.14
2023-05-19T08:47:13.874Z,59.58
2023-05-19T08:49:46.481Z,63.05
2023-05-19T08:52:23.351Z,61.00
2023-05-19T08:54:53.169Z,59.85
2023-05-19T08:57:19.699Z,58.61
2023-05-19T08:59:46.252Z,56.53
2023-05-19T09:02:13.381Z,58.86
2023-05-19T09:04:40.176Z,58.50
2023-05-19T09:07:06.796Z,59.35
2023-05-19T09:09:33.329Z,58.11
2023-05-19T09:11:59.886Z,56.67
2023-05-19T09:14:26.402Z,58.21
2023-05-19T09:16:53.302Z,61.74
2023-05-19T09:19:21.277Z,56.80
2023-05-19T09:21:57.913Z,54.57
2023-05-19T09:24:25.351Z,55.12
2023-05-19T09:26:51.865Z,55.93
2023-05-19T09:29:18.456Z,56.09
2023-05-19T09:32:06.176Z,57.48
2023-05-19T09:34:32.746Z,56.25
2023-05-19T09:36:59.935Z,56.06
2023-05-19T09:39:26.653Z,58.96
2023-05-19T09:41:53.873Z,57.94
2023-05-19T09:44:20.241Z,56.52
2023-05-19T09:46:53.230Z,59.63
2023-05-19T09:49:24.060Z,59.75
2023-05-19T09:51:53.425Z,57.22
2023-05-19T09:54:20.561Z,56.83
2023-05-19T09:57:00.510Z,56.98
2023-05-19T09:59:28.461Z,52.98
2023-05-19T10:01:59.779Z,55.42
2023-05-19T10:04:27.701Z,53.61
2023-05-19T10:06:54.828Z,56.06
2023-05-19T10:09:28.108Z,55.87
2023-05-19T10:11:58.593Z,55.64
2023-05-19T10:14:26.160Z,53.69
2023-05-19T10:16:53.743Z,54.00
2023-05-19T10:19:24.289Z,53.41
2023-05-19T10:21:51.045Z,51.63
2023-05-19T10:24:17.720Z,54.93
2023-05-19T10:26:46.068Z,54.67
2023-05-19T10:29:12.934Z,53.26
2023-05-19T10:31:40.304Z,52.38
2023-05-19T10:34:34.742Z,53.63
2023-05-19T10:37:10.329Z,50.92
2023-05-19T10:39:36.847Z,53.90
2023-05-19T10:42:12.792Z,54.54
2023-05-19T10:44:51.391Z,53.57
2023-05-19T10:47:24.166Z,53.51
2023-05-19T10:49:53.783Z,51.97
2023-05-19T10:52:21.829Z,50.87
2023-05-19T10:54:48.540Z,52.73
2023-05-19T10:57:16.641Z,53.11
2023-05-19T10:59:44.689Z,53.27
2023-05-19T11:02:11.577Z,52.29
2023-05-19T11:04:51.849Z,51.41
2023-05-19T11:07:20.097Z,52.02
2023-05-19T11:09:52.869Z,53.43
2023-05-19T11:12:24.775Z,50.67
2023-05-19T11:14:55.007Z,49.47
2023-05-19T11:17:22.398Z,49.25
2023-05-19T11:19:56.313Z,47.88
2023-05-19T11:22:26.820Z,49.66
2023-05-19T11:24:56.584Z,50.33
2023-05-19T11:27:33.309Z,47.81
2023-05-19T11:30:06.581Z,46.64
2023-05-19T11:32:33.885Z,49.82
2023-05-19T11:35:01.131Z,48.29
2023-05-19T11:37:29.060Z,51.45
2023-05-19T11:39:55.744Z,49.03
2023-05-19T11:42:22.888Z,51.34
2023-05-19T11:44:49.429Z,50.01
2023-05-19T11:47:42.516Z,50.50
2023-05-19T11:50:06.273Z,49.37
2023-05-19T11:52:32.818Z,48.50
2023-05-19T11:55:02.351Z,47.73
2023-05-19T11:57:28.855Z,49.37
2023-05-19T11:59:56.775Z,49.91
2023-05-19T12:02:27.855Z,51.04
2023-05-19T12:04:54.707Z,50.57
2023-05-19T12:07:23.505Z,48.85
2023-05-19T12:09:50.912Z,50.77
2023-05-19T12:12:18.754Z,48.39
2023-05-19T12:14:50.350Z,48.85
2023-05-19T12:17:18.106Z,49.22
2023-05-19T12:19:44.761Z,50.03
2023-05-19T12:22:11.636Z,48.75
2023-05-19T12:24:38.340Z,49.36
2023-05-19T12:27:17.423Z,50.30
2023-05-19T12:29:44.011Z,51.28
2023-05-19T12:32:10.578Z,46.90
2023-05-19T12:34:38.199Z,47.79
2023-05-19T12:37:05.327Z,49.09
2023-05-19T12:39:32.436Z,49.05
2023-05-19T12:42:11.409Z,47.62
2023-05-19T12:44:39.359Z,48.56
2023-05-19T12:47:07.105Z,49.30
2023-05-19T12:49:34.130Z,49.02
2023-05-19T12:52:07.209Z,46.80
2023-05-19T12:54:37.164Z,47.11
2023-05-19T12:57:05.661Z,47.13
2023-05-19T12:59:54.882Z,46.29
2023-05-19T13:02:21.276Z,46.75
2023-05-19T13:04:48.422Z,45.92
2023-05-19T13:07:15.019Z,46.51
2023-05-19T13:09:42.198Z,46.01
2023-05-19T13:12:08.831Z,44.92
2023-05-19T13:14:35.389Z,44.94
2023-05-19T13:17:02.058Z,47.09
2023-05-19T13:19:29.096Z,48.63
2023-05-19T13:21:55.634Z,48.48
2023-05-19T13:24:22.300Z,52.53
2023-05-19T13:26:48.897Z,48.32
2023-05-19T13:29:15.422Z,46.20
2023-05-19T13:31:42.095Z,45.88
2023-05-19T13:34:08.711Z,43.65
2023-05-19T13:36:36.447Z,45.27
2023-05-19T13:39:03.500Z,45.28
2023-05-19T13:41:30.011Z,47.78
2023-05-19T13:43:58.430Z,43.70
2023-05-19T13:46:36.623Z,45.66
2023-05-19T13:49:10.654Z,45.29
2023-05-19T13:51:37.575Z,45.47
2023-05-19T13:54:05.062Z,43.68
2023-05-19T13:56:31.802Z,42.62
2023-05-19T13:58:58.355Z,43.41
2023-05-19T14:01:24.973Z,43.38
2023-05-19T14:03:52.436Z,43.46
2023-05-19T14:06:19.602Z,45.02
2023-05-19T14:08:46.114Z,43.26
2023-05-19T14:11:39.241Z,44.20
2023-05-19T14:14:05.854Z,43.75
2023-05-19T14:16:32.758Z,44.07
2023-05-19T14:18:59.417Z,45.82
2023-05-19T14:21:25.942Z,45.18
2023-05-19T14:23:52.494Z,45.90
2023-05-19T14:26:19.706Z,43.71
2023-05-19T14:28:46.216Z,46.18
2023-05-19T14:31:13.106Z,47.40
2023-05-19T14:33:40.693Z,45.20
2023-05-19T14:36:10.392Z,47.10
2023-05-19T14:38:36.947Z,47.26
2023-05-19T14:41:03.534Z,47.20
2023-05-19T14:43:30.076Z,46.53
2023-05-19T14:45:58.932Z,46.31
2023-05-19T14:48:25.440Z,44.96
2023-05-19T14:50:52.596Z,45.10
2023-05-19T14:53:19.133Z,44.84
2023-05-19T14:55:47.608Z,44.73
2023-05-19T14:58:27.611Z,45.71
2023-05-19T15:00:57.714Z,45.69
2023-05-19T15:03:24.899Z,46.50
2023-05-19T15:05:51.553Z,46.02
2023-05-19T15:08:18.090Z,46.58
2023-05-19T15:10:48.583Z,45.53
2023-05-19T15:13:15.096Z,46.19
2023-05-19T15:15:41.619Z,46.16
2023-05-19T15:18:08.213Z,45.09
2023-05-19T15:20:34.959Z,48.03
2023-05-19T15:23:01.742Z,47.96
2023-05-19T15:25:28.265Z,48.56
2023-05-19T15:27:55.044Z,48.15
2023-05-19T15:30:21.599Z,48.70
2023-05-19T15:32:48.148Z,50.15
2023-05-19T15:35:15.043Z,49.52
2023-05-19T15:37:41.866Z,49.56
2023-05-19T15:40:08.928Z,48.03
2023-05-19T15:42:35.724Z,47.38
2023-05-19T15:45:02.265Z,48.28
2023-05-19T15:47:28.806Z,49.21
2023-05-19T15:49:55.406Z,49.43
2023-05-19T15:52:21.965Z,51.03
2023-05-19T15:54:48.895Z,48.85
2023-05-19T15:57:15.811Z,49.38
2023-05-19T15:59:42.411Z,49.17
2023-05-19T16:02:09.019Z,52.54
2023-05-19T16:04:35.626Z,50.18
2023-05-19T16:07:02.127Z,50.50
2023-05-19T16:09:28.642Z,52.50
2023-05-19T16:11:55.329Z,52.08
2023-05-19T16:14:22.585Z,52.42
2023-05-19T16:16:49.260Z,52.01
2023-05-19T16:19:15.982Z,52.65
2023-05-19T16:21:42.535Z,52.25
2023-05-19T16:24:09.054Z,52.24
2023-05-19T16:26:35.705Z,53.14
2023-05-19T16:29:02.221Z,53.20
2023-05-19T16:31:28.861Z,53.55
2023-05-19T16:33:55.485Z,53.58
2023-05-19T16:36:22.845Z,53.14
2023-05-19T16:38:49.494Z,52.95
2023-05-19T16:41:16.111Z,52.65
2023-05-19T16:43:42.674Z,52.04
2023-05-19T16:46:12.034Z,54.21
2023-05-19T16:48:38.825Z,53.45
2023-05-19T16:51:05.353Z,54.16
2023-05-19T16:53:31.951Z,52.97
2023-05-19T16:56:01.382Z,53.45
2023-05-19T16:58:28.986Z,53.79
2023-05-19T17:00:57.828Z,54.25
2023-05-19T17:03:24.737Z,55.11
2023-05-19T17:05:52.378Z,54.37
2023-05-19T17:08:18.916Z,54.36
2023-05-19T17:10:45.442Z,53.27
2023-05-19T17:13:11.963Z,54.28
2023-05-19T17:15:38.989Z,55.25
2023-05-19T17:18:06.703Z,54.17
2023-05-19T17:20:33.471Z,55.56
2023-05-19T17:23:00.139Z,55.24
2023-05-19T17:25:26.653Z,54.47
2023-05-19T17:27:53.208Z,55.15
2023-05-19T17:30:19.752Z,54.76
2023-05-19T17:32:46.619Z,55.75
2023-05-19T17:35:13.469Z,57.45
2023-05-19T17:37:39.995Z,55.73
2023-05-19T17:40:07.123Z,56.10
2023-05-19T17:42:33.662Z,56.25
2023-05-19T17:45:00.635Z,57.98
2023-05-19T17:47:27.274Z,56.84
2023-05-19T17:49:54.122Z,57.54
2023-05-19T17:52:21.171Z,59.47
2023-05-19T17:54:47.880Z,57.99
2023-05-19T17:57:15.738Z,58.22
2023-05-19T17:59:42.413Z,59.60
2023-05-19T18:02:09.847Z,58.46
2023-05-19T18:04:36.691Z,58.55
2023-05-19T18:07:05.230Z,57.91
2023-05-19T18:09:31.795Z,58.67
2023-05-19T18:12:01.960Z,58.35
2023-05-19T18:14:28.507Z,58.71
2023-05-19T18:16:55.023Z,60.31
2023-05-19T18:19:21.672Z,59.79
2023-05-19T18:21:48.275Z,59.68
2023-05-19T18:24:14.784Z,59.51
2023-05-19T18:26:42.088Z,60.33
2023-05-19T18:29:12.045Z,60.21
2023-05-19T18:31:38.704Z,60.75
2023-05-19T18:34:05.347Z,59.78
2023-05-19T18:36:32.130Z,61.63
2023-05-19T18:38:59.161Z,61.21
2023-05-19T18:41:25.702Z,61.91
2023-05-19T18:43:52.239Z,61.26
2023-05-19T18:46:18.859Z,62.18
2023-05-19T18:48:45.531Z,61.97
2023-05-19T18:51:14.233Z,62.40
2023-05-19T18:53:40.816Z,62.35
2023-05-19T18:56:07.601Z,62.11
2023-05-19T18:58:34.156Z,62.02
2023-05-19T19:01:00.720Z,62.56
2023-05-19T19:03:28.578Z,62.60
2023-05-19T19:05:57.062Z,63.29
2023-05-19T19:08:23.644Z,62.33
2023-05-19T19:10:51.508Z,63.18
2023-05-19T19:13:18.257Z,63.23
2023-05-19T19:15:45.022Z,64.50
2023-05-19T19:18:11.930Z,65.23
2023-05-19T19:20:38.508Z,67.01
2023-05-19T19:23:06.560Z,67.14
2023-05-19T19:25:33.461Z,67.95
2023-05-19T19:28:00.002Z,67.23
2023-05-19T19:30:26.805Z,67.38
2023-05-19T19:32:54.739Z,67.25
2023-05-19T19:35:21.288Z,68.44
2023-05-19T19:37:47.913Z,68.47
2023-05-19T19:40:14.438Z,68.39
2023-05-19T19:42:41.002Z,68.72
2023-05-19T19:45:07.929Z,69.95
2023-05-19T19:47:34.496Z,70.33
2023-05-19T19:50:02.570Z,70.21
2023-05-19T19:52:29.356Z,72.23
2023-05-19T19:54:55.898Z,72.60
2023-05-19T19:57:22.432Z,73.28
2023-05-19T19:59:56.570Z,71.94
2023-05-19T20:02:23.119Z,72.27
2023-05-19T20:04:49.663Z,73.02
2023-05-19T20:07:19.564Z,72.65
2023-05-19T20:09:46.889Z,73.84
2023-05-19T20:12:13.425Z,72.91
2023-05-19T20:14:39.929Z,72.16
2023-05-19T20:17:06.541Z,73.01
2023-05-19T20:19:33.084Z,72.14
2023-05-19T20:21:59.654Z,73.56
2023-05-19T20:24:26.163Z,73.50
2023-05-19T20:26:52.674Z,74.27
2023-05-19T20:29:19.217Z,73.80
2023-05-19T20:31:46.589Z,74.23
2023-05-19T20:34:13.126Z,73.45
2023-05-19T20:36:39.677Z,72.75
2023-05-19T20:39:07.023Z,72.67
2023-05-19T20:41:33.533Z,73.26
2023-05-19T20:44:00.186Z,72.06
2023-05-19T20:46:26.821Z,72.28
2023-05-19T20:48:53.470Z,70.88
2023-05-19T20:51:21.664Z,71.34
2023-05-19T20:53:48.236Z,71.77
2023-05-19T20:56:14.797Z,71.81
2023-05-19T20:58:41.420Z,73.09
2023-05-19T21:01:08.008Z,71.33
2023-05-19T21:03:34.902Z,71.57
2023-05-19T21:06:01.424Z,72.71
2023-05-19T21:08:27.956Z,74.05
2023-05-19T21:10:54.514Z,74.45
2023-05-19T21:13:21.152Z,73.30
2023-05-19T21:15:47.716Z,73.98
2023-05-19T21:18:14.309Z,72.48
2023-05-19T21:20:40.882Z,73.41
2023-05-19T21:23:07.409Z,74.52
2023-05-19T21:25:33.965Z,74.64
2023-05-19T21:28:00.544Z,75.69
2023-05-19T21:30:27.114Z,75.38
2023-05-19T21:32:53.788Z,75.55
2023-05-19T21:35:20.349Z,75.53
2023-05-19T21:37:46.859Z,75.74
2023-05-19T21:40:13.455Z,75.37
2023-05-19T21:42:40.001Z,75.04
2023-05-19T21:45:07.266Z,74.87
2023-05-19T21:47:33.766Z,76.69
2023-05-19T21:50:00.577Z,76.08
2023-05-19T21:52:27.119Z,75.79
2023-05-19T21:54:53.664Z,75.81
2023-05-19T21:57:20.285Z,75.50
2023-05-19T21:59:46.867Z,74.88
2023-05-19T22:02:13.514Z,75.08
2023-05-19T22:04:41.750Z,75.79
2023-05-19T22:07:08.278Z,75.45
2023-05-19T22:09:34.815Z,76.16
2023-05-19T22:12:01.358Z,75.48
2023-05-19T22:14:27.890Z,76.12
2023-05-19T22:16:54.526Z,76.31
2023-05-19T22:19:21.387Z,76.53
2023-05-19T22:21:48.345Z,77.04
2023-05-19T22:24:16.069Z,76.99
2023-05-19T22:26:42.894Z,75.92
2023-05-19T22:29:14.898Z,76.30
2023-05-19T22:31:41.460Z,76.42
2023-05-19T22:34:08.095Z,76.83
2023-05-19T22:36:34.649Z,75.78
2023-05-19T22:39:01.175Z,75.91
2023-05-19T22:41:27.715Z,77.46
2023-05-19T22:43:54.236Z,79.79
2023-05-19T22:46:21.319Z,79.60
2023-05-19T22:48:47.851Z,80.03
2023-05-19T22:51:14.370Z,81.50
2023-05-19T22:53:42.509Z,81.86
2023-05-19T22:56:09.025Z,84.14
2023-05-19T22:58:35.530Z,84.68
2023-05-19T23:01:02.071Z,85.33
2023-05-19T23:03:28.642Z,83.66
2023-05-19T23:05:55.319Z,83.41
2023-05-19T23:08:21.845Z,86.58
2023-05-19T23:10:48.888Z,87.58
2023-05-19T23:13:15.490Z,88.74
2023-05-19T23:15:41.989Z,87.25
2023-05-19T23:18:08.686Z,87.87
2023-05-19T23:20:35.525Z,91.23
2023-05-19T23:23:02.066Z,89.40
2023-05-19T23:25:28.621Z,89.58
2023-05-19T23:27:55.216Z,90.46
2023-05-19T23:30:21.717Z,90.39
2023-05-19T23:32:48.263Z,90.80
2023-05-19T23:35:16.379Z,90.90
2023-05-19T23:37:42.915Z,91.29
2023-05-19T23:40:09.626Z,90.46
2023-05-19T23:42:36.684Z,91.08
2023-05-19T23:45:03.807Z,91.57
2023-05-19T23:47:30.363Z,91.69
2023-05-19T23:49:56.891Z,92.74
2023-05-19T23:52:23.428Z,95.21
2023-05-19T23:54:49.980Z,95.96
2023-05-19T23:57:16.489Z,95.91
2023-05-19T23:59:43.153Z,97.35
